Time;durP1;ratioP1;P1;durP2;ratioP2;P2;SDS_P1;SDS_P2;PMS_P1;PMS_P2;Temp;Humidity;BMP_temperature;BMP_pressure;BME280_temperature;BME280_humidity;BME280_pressure;Samples;Min_cycle;Max_cycle;Signal;HPM_P1;HPM_P2
2022/03/28 00:00:25;;;;;;;8.50;6.43;;;14.50;99.90;;;;;;5094285;28;20023;-66
2022/03/28 00:02:51;;;;;;;8.00;7.07;;;14.50;99.90;;;;;;5093405;28;20027;-65
2022/03/28 00:05:17;;;;;;;8.52;6.82;;;14.40;99.90;;;;;;5093979;28;20051;-66
2022/03/28 00:07:44;;;;;;;8.15;6.95;;;14.50;99.90;;;;;;5093173;28;20019;-66
2022/03/28 00:10:11;;;;;;;7.85;6.50;;;14.40;99.90;;;;;;5112365;28;20457;-66
2022/03/28 00:12:38;;;;;;;8.43;6.85;;;14.40;99.90;;;;;;5111545;28;20024;-66
2022/03/28 00:15:05;;;;;;;8.23;6.43;;;14.50;99.90;;;;;;5093543;28;20036;-65
2022/03/28 00:17:32;;;;;;;8.00;6.03;;;14.30;99.90;;;;;;5093133;28;20440;-67
2022/03/28 00:20:01;;;;;;;9.10;6.95;;;14.30;99.90;;;;;;5111974;28;20098;-66
2022/03/28 00:22:28;;;;;;;10.73;6.20;;;14.30;99.90;;;;;;5111720;28;20084;-66
2022/03/28 00:24:54;;;;;;;9.65;6.88;;;14.30;99.90;;;;;;5111228;28;20066;-66
2022/03/28 00:27:19;;;;;;;10.13;7.45;;;14.20;99.90;;;;;;5093745;28;20055;-67
2022/03/28 00:29:45;;;;;;;7.88;6.43;;;14.30;99.90;;;;;;5092984;28;20027;-66
2022/03/28 00:32:11;;;;;;;8.48;6.35;;;14.30;99.90;;;;;;5111864;28;20390;-66
2022/03/28 00:34:37;;;;;;;11.52;7.00;;;14.30;99.90;;;;;;5110925;28;20107;-66
2022/03/28 00:37:04;;;;;;;6.65;5.97;;;14.10;99.90;;;;;;5111829;28;20023;-66
2022/03/28 00:39:30;;;;;;;8.15;6.55;;;14.10;99.90;;;;;;5093530;28;20027;-65
2022/03/28 00:41:55;;;;;;;7.40;6.20;;;14.10;99.90;;;;;;5111054;28;20493;-66
2022/03/28 00:44:21;;;;;;;9.55;6.80;;;14.20;99.90;;;;;;5111293;28;20054;-66
2022/03/28 00:46:47;;;;;;;8.18;6.90;;;14.20;99.90;;;;;;5092639;28;20032;-66
2022/03/28 00:49:13;;;;;;;8.90;6.93;;;14.10;99.90;;;;;;5111563;28;20024;-67
2022/03/28 00:51:39;;;;;;;7.88;6.35;;;14.10;99.90;;;;;;5092500;28;20039;-67
2022/03/28 00:54:05;;;;;;;10.60;6.78;;;14.10;99.90;;;;;;5111391;28;20023;-66
2022/03/28 00:56:31;;;;;;;9.88;7.22;;;14.00;99.90;;;;;;5111053;28;20028;-65
2022/03/28 00:58:58;;;;;;;7.25;6.55;;;14.00;99.90;;;;;;5092450;28;20526;-66
2022/03/28 01:01:25;;;;;;;10.85;7.35;;;13.90;99.90;;;;;;5111648;28;20110;-65
2022/03/28 01:03:51;;;;;;;9.70;7.72;;;13.90;99.90;;;;;;5110539;28;20063;-65
2022/03/28 01:06:17;;;;;;;8.75;7.40;;;13.80;99.90;;;;;;5112966;28;20051;-65
2022/03/28 01:08:42;;;;;;;8.00;6.60;;;13.80;99.90;;;;;;5096731;28;20566;-65
2022/03/28 01:11:12;;;;;;;10.57;7.43;;;13.80;99.90;;;;;;5115695;28;20076;-66
2022/03/28 01:13:39;;;;;;;7.80;6.50;;;13.90;99.90;;;;;;5114665;28;20024;-65
2022/03/28 01:16:05;;;;;;;7.80;6.57;;;13.90;99.90;;;;;;5097251;28;20023;-66
2022/03/28 01:18:31;;;;;;;10.55;7.78;;;13.80;99.90;;;;;;5115217;28;20024;-66
2022/03/28 01:21:04;;;;;;;9.05;6.18;;;13.70;99.90;;;;;;5114708;28;20476;-65
2022/03/28 01:23:30;;;;;;;7.82;7.00;;;13.70;99.90;;;;;;5115668;28;20376;-66
2022/03/28 01:25:57;;;;;;;10.55;7.78;;;13.70;99.90;;;;;;5096085;28;20126;-67
2022/03/28 01:28:25;;;;;;;7.55;6.75;;;13.70;99.90;;;;;;5096898;28;20430;-66
2022/03/28 01:30:54;;;;;;;8.70;7.22;;;13.70;99.90;;;;;;5096178;28;20023;-66
2022/03/28 01:33:19;;;;;;;9.27;7.15;;;13.60;99.90;;;;;;5115039;28;20457;-65
2022/03/28 01:35:45;;;;;;;11.80;7.82;;;13.60;99.90;;;;;;5114185;28;20042;-65
2022/03/28 01:38:14;;;;;;;10.43;7.45;;;13.50;99.90;;;;;;5115066;28;20093;-66
2022/03/28 01:40:42;;;;;;;10.68;7.05;;;13.60;99.90;;;;;;5095871;28;20024;-67
2022/03/28 01:43:08;;;;;;;10.90;7.90;;;13.50;99.90;;;;;;5114782;28;20028;-65
2022/03/28 01:45:33;;;;;;;10.38;7.60;;;13.50;99.90;;;;;;5073654;28;20098;-66
2022/03/28 01:47:59;;;;;;;8.93;7.30;;;13.50;99.90;;;;;;5073578;28;20031;-66
2022/03/28 01:50:25;;;;;;;8.98;7.43;;;13.40;99.90;;;;;;5074137;28;20531;-66
2022/03/28 01:52:51;;;;;;;9.52;7.78;;;13.40;99.90;;;;;;5073570;28;20060;-66
2022/03/28 01:55:17;;;;;;;10.80;7.97;;;13.40;99.90;;;;;;5106451;28;20066;-66
2022/03/28 01:57:44;;;;;;;8.90;7.40;;;13.40;99.90;;;;;;5073530;28;20442;-66
2022/03/28 02:00:13;;;;;;;11.55;7.53;;;13.30;99.90;;;;;;5073992;28;20052;-65
2022/03/28 02:02:39;;;;;;;9.07;7.50;;;13.30;99.90;;;;;;5105764;28;20450;-66
2022/03/28 02:05:07;;;;;;;8.27;7.30;;;13.30;99.90;;;;;;5073690;28;20090;-66
2022/03/28 02:07:33;;;;;;;8.75;7.65;;;13.30;99.90;;;;;;5106354;28;20547;-65
2022/03/28 02:09:59;;;;;;;7.18;6.20;;;13.30;99.90;;;;;;5071725;28;20032;-66
2022/03/28 02:12:24;;;;;;;14.77;8.30;;;13.20;99.90;;;;;;5073658;28;20426;-65
2022/03/28 02:14:50;;;;;;;11.40;7.90;;;13.20;99.90;;;;;;5072887;28;20494;-66
2022/03/28 02:17:16;;;;;;;11.73;8.27;;;13.10;99.90;;;;;;5073320;28;20112;-66
2022/03/28 02:19:41;;;;;;;10.27;8.07;;;13.10;99.90;;;;;;5105607;28;20020;-66
2022/03/28 02:22:07;;;;;;;10.95;7.53;;;13.10;99.90;;;;;;5072204;28;20032;-66
2022/03/28 02:24:33;;;;;;;11.15;8.27;;;13.10;99.90;;;;;;5073109;28;20032;-65
2022/03/28 02:26:58;;;;;;;8.35;7.10;;;13.10;99.90;;;;;;5072603;28;20028;-66
2022/03/28 02:29:24;;;;;;;13.48;8.18;;;13.00;99.90;;;;;;5071930;28;20028;-65
2022/03/28 02:31:50;;;;;;;8.68;7.65;;;13.00;99.90;;;;;;5105186;28;20029;-66
2022/03/28 02:34:15;;;;;;;11.50;8.93;;;13.00;99.90;;;;;;5072064;28;20381;-65
2022/03/28 02:36:41;;;;;;;11.48;8.00;;;13.00;99.90;;;;;;5104856;28;20473;-66
2022/03/28 02:39:07;;;;;;;14.63;9.00;;;13.00;99.90;;;;;;5106057;28;20520;-66
2022/03/28 02:41:32;;;;;;;9.75;7.85;;;13.00;99.90;;;;;;5102579;28;20017;-66
2022/03/28 02:43:58;;;;;;;9.38;7.22;;;12.90;99.90;;;;;;5082052;28;20192;-65
2022/03/28 02:46:24;;;;;;;10.07;8.40;;;12.90;99.90;;;;;;5113466;28;20380;-66
2022/03/28 02:48:49;;;;;;;13.30;7.22;;;12.90;99.90;;;;;;5094689;28;20325;-65
2022/03/28 02:51:15;;;;;;;11.00;7.80;;;12.90;99.90;;;;;;5094908;28;20336;-66
2022/03/28 02:53:41;;;;;;;12.35;8.32;;;12.80;99.90;;;;;;5113055;28;20434;-66
2022/03/28 02:56:06;;;;;;;10.02;7.88;;;12.70;99.90;;;;;;5094944;28;20027;-65
2022/03/28 02:58:32;;;;;;;10.27;7.15;;;12.70;99.90;;;;;;5095001;28;20020;-66
2022/03/28 03:00:58;;;;;;;9.38;7.88;;;12.70;99.90;;;;;;5112856;28;20377;-66
2022/03/28 03:03:24;;;;;;;11.50;8.27;;;12.60;99.90;;;;;;5094915;28;20028;-66
2022/03/28 03:05:52;;;;;;;11.85;8.55;;;12.70;99.90;;;;;;5112666;28;20464;-66
2022/03/28 03:08:18;;;;;;;12.30;8.18;;;12.60;99.90;;;;;;5094752;28;20035;-66
2022/03/28 03:10:44;;;;;;;13.38;9.38;;;12.70;99.90;;;;;;5094195;28;20495;-65
2022/03/28 03:13:10;;;;;;;9.93;7.68;;;12.60;99.90;;;;;;5113231;28;20020;-66
2022/03/28 03:15:38;;;;;;;10.02;7.22;;;12.50;99.90;;;;;;5112648;28;20047;-65
2022/03/28 03:18:04;;;;;;;10.05;8.30;;;12.40;99.90;;;;;;5094104;28;20044;-66
2022/03/28 03:20:31;;;;;;;12.20;8.23;;;12.50;99.90;;;;;;5094641;28;20070;-65
2022/03/28 03:22:57;;;;;;;11.45;8.40;;;12.50;99.90;;;;;;5112005;28;20051;-65
2022/03/28 03:25:23;;;;;;;13.32;8.02;;;12.40;99.90;;;;;;5112860;28;20074;-66
2022/03/28 03:27:51;;;;;;;11.50;8.57;;;12.50;99.90;;;;;;5111832;28;20122;-66
2022/03/28 03:30:18;;;;;;;11.15;8.77;;;12.40;99.90;;;;;;5111968;28;20433;-65
2022/03/28 03:32:44;;;;;;;10.77;8.82;;;12.40;99.90;;;;;;5093781;28;20020;-66
2022/03/28 03:35:10;;;;;;;10.82;8.45;;;12.40;99.90;;;;;;5094427;28;20366;-66
2022/03/28 03:37:36;;;;;;;9.70;8.32;;;12.30;99.90;;;;;;5094482;28;20034;-65
2022/03/28 03:40:04;;;;;;;11.35;8.63;;;12.40;99.90;;;;;;5093806;28;20423;-65
2022/03/28 03:42:31;;;;;;;14.13;8.70;;;12.30;99.90;;;;;;5112440;28;20114;-65
2022/03/28 03:44:58;;;;;;;11.55;8.52;;;12.30;99.90;;;;;;5111308;28;20121;-65
2022/03/28 03:47:23;;;;;;;12.10;9.05;;;12.20;99.90;;;;;;5112301;28;20093;-65
2022/03/28 03:49:49;;;;;;;12.88;8.32;;;12.20;99.90;;;;;;5111732;28;20028;-65
2022/03/28 03:52:15;;;;;;;11.77;9.35;;;12.20;99.90;;;;;;5112641;28;20023;-66
2022/03/28 03:54:40;;;;;;;11.73;8.70;;;12.30;99.90;;;;;;5112163;28;20027;-66
2022/03/28 03:57:07;;;;;;;15.10;9.02;;;12.30;99.90;;;;;;5111895;28;20030;-65
2022/03/28 03:59:33;;;;;;;11.60;9.88;;;12.20;99.90;;;;;;5112115;28;20373;-66
2022/03/28 04:01:59;;;;;;;10.38;8.88;;;12.10;99.90;;;;;;5111573;28;20031;-66
2022/03/28 04:04:25;;;;;;;11.38;8.90;;;12.20;99.90;;;;;;5112118;28;20105;-66
2022/03/28 04:06:51;;;;;;;16.00;8.25;;;12.20;99.90;;;;;;5111310;28;20102;-66
2022/03/28 04:09:16;;;;;;;12.55;9.18;;;12.10;99.90;;;;;;5112038;28;20055;-66
2022/03/28 04:11:42;;;;;;;13.88;8.38;;;12.10;99.90;;;;;;5111994;28;20110;-65
2022/03/28 04:14:08;;;;;;;14.50;10.75;;;12.00;99.90;;;;;;5092631;28;20080;-65
2022/03/28 04:16:34;;;;;;;13.73;9.23;;;11.90;99.90;;;;;;5093529;28;20496;-65
2022/03/28 04:19:00;;;;;;;12.30;9.52;;;11.90;99.90;;;;;;5092731;28;20070;-65
2022/03/28 04:21:26;;;;;;;13.07;10.05;;;11.90;99.90;;;;;;5093294;28;20059;-66
2022/03/28 04:23:51;;;;;;;10.95;9.00;;;11.90;99.90;;;;;;5092829;28;20030;-65
2022/03/28 04:26:17;;;;;;;10.05;7.95;;;11.90;99.90;;;;;;5093436;28;20031;-65
2022/03/28 04:28:43;;;;;;;13.50;8.65;;;11.90;99.90;;;;;;5093339;28;20073;-66
2022/03/28 04:31:10;;;;;;;12.32;9.50;;;11.90;99.90;;;;;;5092776;28;20457;-65
2022/03/28 04:33:36;;;;;;;13.02;9.13;;;11.90;99.90;;;;;;5111240;28;20032;-66
2022/03/28 04:36:02;;;;;;;11.57;10.02;;;11.90;99.90;;;;;;5092636;28;20027;-65
2022/03/28 04:38:28;;;;;;;17.02;10.25;;;11.80;99.90;;;;;;5093129;28;20449;-66
2022/03/28 04:40:53;;;;;;;11.30;9.32;;;11.80;99.90;;;;;;5087753;28;20043;-65
2022/03/28 04:43:20;;;;;;;11.05;8.23;;;11.80;99.90;;;;;;5088393;28;20040;-65
2022/03/28 04:45:46;;;;;;;10.52;8.77;;;11.70;99.90;;;;;;5088048;28;20051;-75
2022/03/28 04:48:12;;;;;;;12.70;9.48;;;11.70;99.90;;;;;;5071620;28;20043;-65
2022/03/28 04:50:38;;;;;;;16.38;10.10;;;11.70;99.90;;;;;;5071844;28;20039;-65
2022/03/28 04:53:04;;;;;;;13.75;8.40;;;11.70;99.90;;;;;;5071049;28;20050;-66
2022/03/28 04:55:30;;;;;;;13.18;9.35;;;11.70;99.90;;;;;;5088639;28;20040;-66
2022/03/28 04:57:56;;;;;;;11.82;9.00;;;11.70;99.90;;;;;;5071028;28;20081;-66
2022/03/28 05:00:21;;;;;;;13.15;9.70;;;11.70;99.90;;;;;;5071922;28;20078;-65
2022/03/28 05:02:47;;;;;;;12.23;9.20;;;11.60;99.90;;;;;;5070972;28;20024;-70
2022/03/28 05:05:14;;;;;;;14.30;9.30;;;11.80;99.90;;;;;;5071563;28;20032;-65
2022/03/28 05:07:40;;;;;;;15.18;9.20;;;11.80;99.90;;;;;;5071370;28;20507;-65
2022/03/28 05:10:06;;;;;;;15.43;9.07;;;11.80;99.90;;;;;;5087701;28;20028;-65
2022/03/28 05:12:32;;;;;;;16.90;9.15;;;11.70;99.90;;;;;;5089936;28;20127;-65
2022/03/28 05:14:58;;;;;;;11.65;9.73;;;11.80;99.90;;;;;;5090018;28;20051;-66
2022/03/28 05:17:29;;;;;;;16.70;9.50;;;11.90;99.90;;;;;;5089634;28;20028;-66
2022/03/28 05:19:56;;;;;;;22.67;10.18;;;11.80;99.90;;;;;;5088708;28;20028;-65
2022/03/28 05:22:23;;;;;;;14.90;10.57;;;11.80;99.90;;;;;;5090874;28;20117;-66
2022/03/28 05:24:50;;;;;;;16.48;9.90;;;11.70;99.90;;;;;;5088677;28;20051;-76
2022/03/28 05:27:17;;;;;;;12.43;9.27;;;11.80;99.90;;;;;;5091347;28;20031;-66
2022/03/28 05:29:43;;;;;;;12.13;9.60;;;11.80;99.90;;;;;;5091347;28;20028;-67
2022/03/28 05:32:09;;;;;;;13.60;9.75;;;11.80;99.90;;;;;;5088694;28;20544;-67
2022/03/28 05:34:35;;;;;;;10.70;8.57;;;11.80;99.90;;;;;;5090276;28;20028;-66
2022/03/28 05:37:03;;;;;;;12.90;10.32;;;11.80;99.90;;;;;;5089920;28;20039;-65
2022/03/28 05:39:29;;;;;;;15.52;10.10;;;11.80;99.90;;;;;;5089203;28;20439;-66
2022/03/28 05:41:55;;;;;;;14.75;10.10;;;11.80;99.90;;;;;;5088298;28;20029;-66
2022/03/28 05:44:20;;;;;;;13.45;10.82;;;11.80;99.90;;;;;;5079910;28;20052;-66
2022/03/28 05:46:48;;;;;;;11.02;9.02;;;11.80;99.90;;;;;;5069903;28;20034;-65
2022/03/28 05:49:14;;;;;;;15.25;10.55;;;11.80;99.90;;;;;;5069187;28;20032;-66
2022/03/28 05:51:40;;;;;;;14.98;9.95;;;11.80;99.90;;;;;;5070018;28;20134;-66
2022/03/28 05:54:06;;;;;;;12.82;9.85;;;11.90;99.90;;;;;;5072540;28;20021;-65
2022/03/28 05:56:32;;;;;;;16.40;9.75;;;11.90;99.90;;;;;;5071850;28;20031;-66
2022/03/28 05:58:57;;;;;;;16.83;10.50;;;12.00;99.90;;;;;;5071274;28;20108;-66
2022/03/28 06:01:23;;;;;;;15.38;9.77;;;11.90;99.90;;;;;;5072025;28;20462;-66
2022/03/28 06:03:49;;;;;;;17.42;10.20;;;11.90;99.90;;;;;;5071921;28;20119;-66
2022/03/28 06:06:15;;;;;;;13.15;9.75;;;12.00;99.90;;;;;;5072707;28;20071;-71
2022/03/28 06:08:41;;;;;;;15.10;9.55;;;12.40;99.90;;;;;;5073439;28;20025;-71
2022/03/28 06:11:06;;;;;;;15.70;10.10;;;12.60;99.90;;;;;;5070862;28;20025;-65
2022/03/28 06:13:33;;;;;;;11.52;9.48;;;12.70;99.90;;;;;;5071590;28;20020;-66
2022/03/28 06:15:59;;;;;;;15.63;10.68;;;12.50;99.90;;;;;;5072073;28;20496;-65
2022/03/28 06:18:25;;;;;;;14.00;10.07;;;12.40;99.90;;;;;;5072782;28;20028;-65
2022/03/28 06:20:51;;;;;;;14.73;9.60;;;12.40;99.90;;;;;;5071111;28;20020;-75
2022/03/28 06:23:17;;;;;;;12.27;9.73;;;12.40;99.90;;;;;;5072987;28;20031;-65
2022/03/28 06:25:43;;;;;;;12.13;10.20;;;12.60;99.90;;;;;;5073513;28;20355;-66
2022/03/28 06:28:10;;;;;;;13.10;10.32;;;12.50;99.90;;;;;;5071190;28;20115;-65
2022/03/28 06:30:36;;;;;;;14.55;10.05;;;12.60;99.90;;;;;;5072766;28;20024;-66
2022/03/28 06:33:02;;;;;;;14.00;10.40;;;12.80;99.90;;;;;;5070503;28;20115;-66
2022/03/28 06:35:28;;;;;;;14.25;10.60;;;12.90;99.90;;;;;;5071635;28;20361;-67
2022/03/28 06:37:53;;;;;;;12.25;10.23;;;12.90;99.90;;;;;;5072056;28;20107;-68
2022/03/28 06:40:20;;;;;;;14.55;10.77;;;13.00;99.90;;;;;;5072878;28;20029;-67
2022/03/28 06:42:46;;;;;;;12.30;8.95;;;13.20;99.90;;;;;;5073138;28;20024;-65
2022/03/28 06:45:13;;;;;;;13.38;9.65;;;13.50;99.90;;;;;;5103599;28;20062;-65
2022/03/28 06:47:39;;;;;;;13.98;10.10;;;13.60;99.90;;;;;;5095130;28;20460;-66
2022/03/28 06:50:06;;;;;;;16.63;10.27;;;13.90;99.90;;;;;;5094121;28;20118;-66
2022/03/28 06:52:33;;;;;;;15.93;10.70;;;14.10;99.90;;;;;;5113419;28;20031;-68
2022/03/28 06:54:59;;;;;;;38.70;12.50;;;14.20;99.90;;;;;;5094557;28;20078;-66
2022/03/28 06:57:25;;;;;;;21.27;10.63;;;14.40;99.90;;;;;;5112860;28;20055;-66
2022/03/28 06:59:51;;;;;;;22.58;10.43;;;14.40;99.90;;;;;;5094374;28;20043;-67
2022/03/28 07:02:16;;;;;;;21.67;9.68;;;14.50;99.90;;;;;;5108273;28;20457;-67
2022/03/28 07:04:42;;;;;;;20.63;10.75;;;14.60;99.90;;;;;;5112100;28;20077;-67
2022/03/28 07:07:08;;;;;;;20.45;10.48;;;14.60;99.90;;;;;;5112271;28;20425;-66
2022/03/28 07:09:35;;;;;;;21.92;11.60;;;14.80;99.90;;;;;;5094430;28;20035;-66
2022/03/28 07:12:03;;;;;;;18.90;11.73;;;14.80;99.90;;;;;;5111544;27;20027;-68
2022/03/28 07:14:29;;;;;;;26.83;11.60;;;14.70;99.90;;;;;;5109468;28;20195;-66
2022/03/28 07:16:55;;;;;;;18.60;10.80;;;14.90;99.90;;;;;;5112220;28;20027;-75
2022/03/28 07:19:21;;;;;;;20.40;9.77;;;15.20;99.90;;;;;;5094246;28;20023;-67
2022/03/28 07:21:47;;;;;;;12.82;9.48;;;15.20;99.90;;;;;;5112555;28;20111;-67
2022/03/28 07:24:14;;;;;;;11.73;9.45;;;15.20;99.90;;;;;;5092479;28;20097;-67
2022/03/28 07:26:44;;;;;;;14.13;8.90;;;15.80;99.90;;;;;;5111452;28;20024;-66
2022/03/28 07:29:09;;;;;;;13.27;10.25;;;15.80;99.60;;;;;;5091512;28;20027;-65
2022/03/28 07:31:39;;;;;;;18.60;10.50;;;15.80;99.90;;;;;;5112337;28;20031;-66
2022/03/28 07:37:10;;;;;;;19.42;9.18;;;16.70;98.70;;;;;;5035824;28;20028;-68
2022/03/28 07:39:38;;;;;;;20.95;8.85;;;16.90;97.80;;;;;;5037909;28;20075;-67
2022/03/28 07:42:07;;;;;;;16.33;9.70;;;17.00;97.70;;;;;;5020014;28;20035;-66
2022/03/28 07:44:34;;;;;;;23.33;10.35;;;17.30;97.20;;;;;;5043383;28;20053;-67
2022/03/28 07:47:03;;;;;;;16.10;9.82;;;17.50;96.40;;;;;;5030121;28;20490;-65
2022/03/28 07:49:30;;;;;;;19.38;10.70;;;17.30;96.40;;;;;;5024838;28;20029;-66
2022/03/28 07:51:57;;;;;;;22.92;10.20;;;17.00;97.10;;;;;;5039428;28;20416;-71
2022/03/28 07:54:22;;;;;;;17.80;10.82;;;16.90;96.90;;;;;;5032090;28;20079;-66
2022/03/28 07:56:48;;;;;;;19.80;10.43;;;17.20;96.80;;;;;;5032274;28;20455;-68
2022/03/28 07:59:14;;;;;;;18.55;10.57;;;17.40;96.30;;;;;;5030986;28;20100;-68
2022/03/28 08:01:40;;;;;;;27.08;11.73;;;17.80;95.80;;;;;;5031517;28;20029;-66
2022/03/28 08:04:06;;;;;;;30.10;11.48;;;18.20;95.40;;;;;;5045767;28;20032;-70
2022/03/28 08:06:32;;;;;;;27.42;11.35;;;18.50;95.00;;;;;;5031829;28;20032;-68
2022/03/28 08:08:57;;;;;;;19.30;10.48;;;18.80;94.50;;;;;;5072863;28;20370;-70
2022/03/28 08:11:23;;;;;;;76.05;14.73;;;18.70;94.70;;;;;;5093353;28;20035;-68
2022/03/28 08:13:49;;;;;;;29.38;10.30;;;19.10;93.90;;;;;;5093387;28;20131;-68
2022/03/28 08:16:14;;;;;;;44.83;10.02;;;19.30;96.60;;;;;;5092396;28;20457;-67
2022/03/28 08:18:41;;;;;;;25.42;9.85;;;19.50;95.80;;;;;;5093539;28;20019;-67
2022/03/28 08:21:08;;;;;;;31.90;11.43;;;19.40;95.50;;;;;;5092743;28;20019;-67
2022/03/28 08:23:35;;;;;;;36.55;9.63;;;19.70;94.50;;;;;;5093269;28;20059;-67
2022/03/28 08:26:01;;;;;;;23.15;9.15;;;19.80;94.80;;;;;;5092550;28;20040;-67
2022/03/28 08:28:27;;;;;;;24.67;9.57;;;19.80;94.10;;;;;;5111509;28;20049;-66
2022/03/28 08:30:53;;;;;;;16.17;8.15;;;20.30;93.40;;;;;;5111533;28;20024;-66
2022/03/28 08:33:19;;;;;;;17.10;8.98;;;20.40;93.50;;;;;;5111449;28;20085;-67
2022/03/28 08:35:44;;;;;;;19.23;8.40;;;20.60;92.00;;;;;;5111663;28;20460;-68
2022/03/28 08:38:10;;;;;;;18.50;9.70;;;20.90;93.20;;;;;;5092721;28;20019;-67
2022/03/28 08:40:36;;;;;;;21.77;9.00;;;20.40;91.30;;;;;;5092895;28;20028;-67
2022/03/28 08:43:04;;;;;;;17.88;9.80;;;20.20;92.40;;;;;;5092485;28;20032;-65
2022/03/28 08:45:30;;;;;;;30.15;10.18;;;20.60;92.00;;;;;;5071210;28;20431;-66
2022/03/28 08:47:56;;;;;;;16.15;8.95;;;20.80;92.10;;;;;;5069653;28;20060;-68
2022/03/28 08:50:22;;;;;;;17.75;10.15;;;21.10;90.90;;;;;;5068450;28;20446;-67
2022/03/28 08:52:48;;;;;;;16.92;9.80;;;21.30;89.70;;;;;;5069390;28;20028;-67
2022/03/28 08:55:15;;;;;;;15.48;9.95;;;21.50;88.60;;;;;;5068784;28;20028;-68
2022/03/28 08:57:41;;;;;;;22.48;11.30;;;21.00;88.60;;;;;;5070789;28;20036;-76
2022/03/28 09:00:09;;;;;;;19.23;10.57;;;21.50;91.50;;;;;;5070923;28;20070;-74
2022/03/28 09:02:43;;;;;;;13.82;10.50;;;21.60;89.10;;;;;;5070612;28;20033;-67
2022/03/28 09:05:27;;;;;;;28.23;9.35;;;21.30;87.60;;;;;;5068782;28;20121;-63
2022/03/28 09:07:55;;;;;;;17.13;8.20;;;21.70;94.40;;;;;;5068778;28;20457;-64
2022/03/28 09:10:21;;;;;;;18.60;7.97;;;22.10;93.70;;;;;;5069143;28;20039;-63
2022/03/28 09:13:11;;;;;;;21.63;9.93;;;22.60;91.60;;;;;;5069688;28;20029;-69
2022/03/28 09:15:45;;;;;;;14.57;9.95;;;22.60;88.30;;;;;;5069219;28;20037;-68
2022/03/28 09:18:21;;;;;;;15.85;10.13;;;;;;;;;;5070263;28;20033;-69
2022/03/28 09:20:48;;;;;;;15.32;10.30;;;;;;;;;;5068511;28;20047;-69
2022/03/28 09:23:33;;;;;;;11.50;8.88;;;;;;;;;;5068707;28;20020;-70
2022/03/28 09:26:05;;;;;;;14.02;9.55;;;;;;;;;;5068915;28;20037;-68
2022/03/28 09:28:46;;;;;;;15.68;8.95;;;24.40;79.30;;;;;;5074435;28;20013;-70
2022/03/28 09:31:19;;;;;;;12.55;9.45;;;23.40;80.20;;;;;;5072276;28;20052;-68
2022/03/28 09:33:56;;;;;;;12.43;8.52;;;23.00;80.30;;;;;;5072495;28;20029;-69
2022/03/28 09:36:56;;;;;;;12.25;9.23;;;23.50;80.40;;;;;;5071957;28;20035;-68
2022/03/28 09:39:25;;;;;;;13.75;8.95;;;21.60;81.30;;;;;;5075744;28;20493;-69
2022/03/28 09:42:07;;;;;;;22.23;10.18;;;21.70;82.90;;;;;;5071949;28;20055;-67
2022/03/28 09:44:48;;;;;;;17.13;9.27;;;21.90;83.10;;;;;;5071802;28;20052;-68
2022/03/28 09:47:16;;;;;;;15.45;8.50;;;22.00;82.10;;;;;;5071376;28;20021;-70
2022/03/28 09:49:44;;;;;;;16.40;8.95;;;22.00;82.00;;;;;;5071687;28;20046;-68
2022/03/28 09:52:19;;;;;;;9.55;8.40;;;22.70;81.60;;;;;;5072949;28;20101;-67
2022/03/28 09:54:54;;;;;;;10.02;8.18;;;23.00;81.40;;;;;;5071441;28;20028;-68
2022/03/28 09:57:23;;;;;;;11.27;7.90;;;22.90;80.10;;;;;;5072171;28;20051;-68
2022/03/28 09:59:49;;;;;;;13.85;7.97;;;24.00;79.40;;;;;;5073128;28;20448;-68
2022/03/28 10:02:23;;;;;;;16.50;8.85;;;23.90;77.90;;;;;;5071644;28;20478;-67
2022/03/28 10:04:52;;;;;;;15.18;8.40;;;23.60;78.00;;;;;;5072054;28;20137;-68
2022/03/28 10:07:19;;;;;;;12.43;9.00;;;23.90;78.70;;;;;;5071469;28;20032;-70
2022/03/28 10:09:44;;;;;;;12.75;8.30;;;23.90;77.30;;;;;;5072176;28;20032;-67
2022/03/28 10:12:10;;;;;;;12.25;8.93;;;24.00;76.80;;;;;;5071388;28;20029;-69
2022/03/28 10:14:37;;;;;;;17.95;8.98;;;24.20;75.90;;;;;;5071745;28;20039;-67
2022/03/28 10:17:05;;;;;;;10.02;8.32;;;24.30;75.80;;;;;;5071747;28;20028;-71
2022/03/28 10:19:33;;;;;;;15.73;9.45;;;24.60;74.90;;;;;;5071677;28;20036;-70
2022/03/28 10:22:03;;;;;;;14.77;9.40;;;25.00;74.20;;;;;;5071892;28;20043;-69
2022/03/28 10:24:33;;;;;;;12.00;9.77;;;24.60;72.70;;;;;;5070989;28;20109;-68
2022/03/28 10:27:01;;;;;;;12.13;8.48;;;24.00;73.90;;;;;;5072897;28;20036;-68
2022/03/28 10:29:41;;;;;;;15.73;10.38;;;24.20;74.20;;;;;;5070735;28;20054;-67
2022/03/28 10:32:15;;;;;;;13.63;9.30;;;24.20;73.40;;;;;;5071872;28;20443;-68
2022/03/28 10:35:00;;;;;;;12.30;9.93;;;24.40;74.10;;;;;;5071636;28;20033;-68
2022/03/28 10:37:35;;;;;;;11.50;9.55;;;25.00;72.00;;;;;;5071379;28;20747;-71
2022/03/28 10:40:25;;;;;;;12.82;9.35;;;25.30;72.60;;;;;;5071020;28;20032;-69
2022/03/28 10:43:11;;;;;;;15.52;9.40;;;25.60;71.20;;;;;;5072803;28;20028;-68
2022/03/28 10:46:09;;;;;;;14.82;10.20;;;25.80;70.90;;;;;;5110971;28;20048;-68
2022/03/28 10:48:56;;;;;;;13.75;10.32;;;25.00;71.00;;;;;;5082329;28;20392;-69
2022/03/28 10:51:24;;;;;;;15.73;10.52;;;24.90;72.00;;;;;;5112331;28;20038;-67
2022/03/28 10:54:06;;;;;;;19.00;11.10;;;24.30;72.50;;;;;;5094828;28;20081;-69
2022/03/28 10:56:38;;;;;;;15.50;10.93;;;24.30;72.80;;;;;;5094499;28;20081;-68
2022/03/28 10:59:12;;;;;;;12.88;10.38;;;24.40;71.90;;;;;;5094393;28;20024;-68
2022/03/28 11:01:43;;;;;;;13.45;9.70;;;25.00;70.40;;;;;;5094531;28;20030;-69
2022/03/28 11:04:12;;;;;;;12.65;9.05;;;25.30;70.80;;;;;;5093607;28;20123;-69
2022/03/28 11:07:11;;;;;;;12.73;8.77;;;25.80;68.90;;;;;;5094272;28;20028;-67
2022/03/28 11:09:51;;;;;;;14.73;8.90;;;26.00;66.60;;;;;;5094137;28;20114;-68
2022/03/28 11:12:30;;;;;;;9.07;7.75;;;25.30;67.60;;;;;;5093221;28;20028;-68
2022/03/28 11:15:02;;;;;;;13.50;8.60;;;25.90;65.50;;;;;;5112232;28;20038;-68
2022/03/28 11:17:29;;;;;;;12.45;8.20;;;24.00;66.60;;;;;;5093445;28;20172;-69
2022/03/28 11:20:01;;;;;;;10.95;7.32;;;23.70;68.30;;;;;;5094015;28;20027;-68
2022/03/28 11:22:49;;;;;;;24.95;8.32;;;24.90;66.80;;;;;;5093038;28;20072;-67
2022/03/28 11:25:27;;;;;;;12.40;8.15;;;25.40;62.00;;;;;;5092590;28;20028;-68
2022/03/28 11:28:08;;;;;;;9.98;7.35;;;24.10;61.70;;;;;;5112225;28;20031;-68
2022/03/28 11:30:59;;;;;;;13.65;8.00;;;24.10;61.80;;;;;;5093535;28;20051;-68
2022/03/28 11:33:48;;;;;;;10.38;7.20;;;24.40;62.50;;;;;;5087471;28;20039;-67
2022/03/28 11:36:22;;;;;;;13.63;6.90;;;24.90;62.40;;;;;;5111466;28;20075;-68
2022/03/28 11:38:53;;;;;;;12.35;7.97;;;25.50;62.50;;;;;;5112048;28;20059;-68
2022/03/28 11:41:21;;;;;;;11.50;7.03;;;25.20;62.40;;;;;;5111798;28;20114;-68
2022/03/28 11:43:49;;;;;;;14.07;7.13;;;25.90;63.10;;;;;;5127192;27;20229;-68
2022/03/28 11:46:27;;;;;;;10.15;7.30;;;26.00;62.00;;;;;;5111547;28;20027;-70
2022/03/28 11:49:04;;;;;;;9.95;6.82;;;25.20;61.80;;;;;;5093025;28;20035;-68
2022/03/28 11:51:34;;;;;;;14.80;6.63;;;24.60;62.50;;;;;;5092571;28;20039;-67
2022/03/28 11:54:05;;;;;;;9.40;6.25;;;25.60;61.10;;;;;;5127379;27;20115;-70
2022/03/28 11:56:36;;;;;;;8.30;5.18;;;26.10;59.80;;;;;;5092412;28;20031;-69
2022/03/28 11:59:07;;;;;;;9.95;6.55;;;26.70;59.60;;;;;;5111913;28;20105;-68
2022/03/28 12:01:33;;;;;;;;;;;27.20;59.80;;;;;;5111388;28;20430;-68
2022/03/28 12:04:00;;;;;;;10.68;7.03;;;27.30;58.60;;;;;;5093110;28;19915;-68
2022/03/28 12:06:31;;;;;;;8.65;6.60;;;27.30;59.20;;;;;;5092502;28;20036;-69
2022/03/28 12:08:58;;;;;;;6.93;6.05;;;27.40;58.80;;;;;;5111788;28;20024;-69
2022/03/28 12:11:25;;;;;;;9.40;5.40;;;27.50;57.40;;;;;;5092849;28;20027;-68
2022/03/28 12:13:51;;;;;;;8.75;5.15;;;27.60;56.80;;;;;;5111421;28;20413;-70
2022/03/28 12:16:17;;;;;;;8.70;5.15;;;27.80;56.00;;;;;;5111252;28;20039;-68
2022/03/28 12:18:44;;;;;;;8.63;5.72;;;27.70;56.10;;;;;;5092716;28;20042;-69
2022/03/28 12:21:10;;;;;;;8.95;5.88;;;27.60;55.70;;;;;;5092963;28;20046;-68
2022/03/28 12:23:37;;;;;;;10.32;5.47;;;27.50;55.30;;;;;;5110595;28;20020;-70
2022/03/28 12:26:05;;;;;;;11.25;5.90;;;27.50;56.10;;;;;;5093031;28;20074;-68
2022/03/28 12:28:34;;;;;;;10.98;5.85;;;27.80;55.40;;;;;;5092172;28;20103;-70
2022/03/28 12:31:03;;;;;;;7.60;5.78;;;27.40;54.50;;;;;;5111126;28;20345;-69
2022/03/28 12:33:34;;;;;;;11.43;5.93;;;27.50;55.10;;;;;;5092131;28;20028;-69
2022/03/28 12:36:19;;;;;;;8.32;5.60;;;27.40;56.10;;;;;;5093096;28;20028;-69
2022/03/28 12:38:56;;;;;;;9.40;6.45;;;27.60;54.90;;;;;;5092784;28;20476;-71
2022/03/28 12:41:22;;;;;;;9.85;5.47;;;27.80;54.40;;;;;;5092104;28;20349;-68
2022/03/28 12:43:50;;;;;;;10.23;5.82;;;27.50;54.30;;;;;;5110550;28;20028;-68
2022/03/28 12:46:16;;;;;;;27.98;7.97;;;26.70;54.80;;;;;;5110141;28;20449;-68